Time;durP1;ratioP1;P1;durP2;ratioP2;P2;SDS_P1;SDS_P2;PMS_P1;PMS_P2;Temp;Humidity;BMP_temperature;BMP_pressure;BME280_temperature;BME280_humidity;BME280_pressure;Samples;Min_cycle;Max_cycle;Signal;HPM_P1;HPM_P2
2022/12/13 00:00:19;;;;;;;26.00;13.82;;;-5.20;99.90;;;;;;5054256;28;20205;-60
2022/12/13 00:02:46;;;;;;;24.92;13.75;;;-5.20;99.90;;;;;;5054284;28;20220;-60
2022/12/13 00:05:13;;;;;;;23.80;13.98;;;-5.20;99.90;;;;;;5053532;28;20220;-61
2022/12/13 00:07:40;;;;;;;20.83;14.45;;;-5.20;99.90;;;;;;5054003;28;20241;-60
2022/12/13 00:10:08;;;;;;;24.27;14.43;;;-5.30;99.90;;;;;;5053900;28;20206;-60
2022/12/13 00:12:34;;;;;;;23.85;14.30;;;-5.30;99.90;;;;;;5053790;28;20226;-60
2022/12/13 00:15:03;;;;;;;21.55;13.20;;;-5.30;99.90;;;;;;5053918;28;20226;-60
2022/12/13 00:17:31;;;;;;;22.92;13.55;;;-5.30;99.90;;;;;;5053466;28;20202;-60
2022/12/13 00:19:58;;;;;;;23.48;14.18;;;-5.30;99.90;;;;;;5053086;28;20217;-58
2022/12/13 00:22:25;;;;;;;25.08;13.55;;;-5.40;99.90;;;;;;5053380;28;20215;-60
2022/12/13 00:24:54;;;;;;;23.55;13.25;;;-5.40;99.90;;;;;;5053245;28;20200;-60
2022/12/13 00:27:22;;;;;;;23.95;13.20;;;-5.40;99.90;;;;;;5056981;28;20213;-59
2022/12/13 00:29:48;;;;;;;25.30;12.80;;;-5.40;99.90;;;;;;5057284;28;20228;-60
2022/12/13 00:32:16;;;;;;;19.70;12.10;;;-5.40;99.90;;;;;;5057323;28;20201;-62
2022/12/13 00:34:43;;;;;;;22.48;12.88;;;-5.40;99.90;;;;;;5057166;28;20218;-60
2022/12/13 00:37:10;;;;;;;28.70;14.20;;;-5.40;99.90;;;;;;5056897;28;20212;-60
2022/12/13 00:39:37;;;;;;;25.98;14.27;;;-5.40;99.90;;;;;;5056905;28;20214;-61
2022/12/13 00:42:04;;;;;;;22.98;13.75;;;-5.40;99.90;;;;;;5057172;28;20226;-60
2022/12/13 00:44:31;;;;;;;23.88;14.30;;;-5.40;99.90;;;;;;5057333;28;20222;-60
2022/12/13 00:46:58;;;;;;;20.48;13.40;;;-5.40;99.90;;;;;;5057215;28;20201;-61
2022/12/13 00:49:27;;;;;;;29.38;17.05;;;-5.50;99.90;;;;;;5056676;28;20203;-60
2022/12/13 00:51:54;;;;;;;23.33;13.95;;;-5.50;99.90;;;;;;5057567;28;20204;-61
2022/12/13 00:54:20;;;;;;;32.40;16.38;;;-5.50;99.90;;;;;;5057209;28;20226;-60
2022/12/13 00:56:50;;;;;;;30.15;16.17;;;-5.50;99.90;;;;;;5058090;28;20220;-60
2022/12/13 00:59:17;;;;;;;24.02;15.88;;;-5.50;99.90;;;;;;5057287;28;20548;-61
2022/12/13 01:01:44;;;;;;;33.08;17.17;;;-5.50;99.90;;;;;;5057094;28;20206;-59
2022/12/13 01:04:11;;;;;;;28.17;15.95;;;-5.60;99.90;;;;;;5056954;28;20253;-60
2022/12/13 01:06:41;;;;;;;27.98;17.83;;;-5.60;99.90;;;;;;5056702;28;20231;-60
2022/12/13 01:09:14;;;;;;;27.95;16.85;;;-5.60;99.90;;;;;;5057584;28;20199;-60
2022/12/13 01:11:41;;;;;;;41.35;18.73;;;-5.60;99.90;;;;;;5056618;28;20212;-59
2022/12/13 01:14:07;;;;;;;32.58;17.55;;;-5.60;99.90;;;;;;5055963;28;20252;-60
2022/12/13 01:16:34;;;;;;;30.15;15.90;;;-5.60;99.90;;;;;;5056972;28;20245;-60
2022/12/13 01:19:01;;;;;;;32.15;17.70;;;-5.60;99.90;;;;;;5056417;28;20220;-60
2022/12/13 01:21:28;;;;;;;28.50;16.23;;;-5.60;99.90;;;;;;5056747;28;20203;-60
2022/12/13 01:24:00;;;;;;;30.40;17.60;;;-5.60;99.90;;;;;;5057247;28;20616;-60
2022/12/13 01:26:27;;;;;;;37.10;17.13;;;-5.60;99.90;;;;;;5057318;28;20183;-59
2022/12/13 01:28:54;;;;;;;38.35;17.23;;;-5.60;99.90;;;;;;5057697;28;20211;-60
2022/12/13 01:31:21;;;;;;;27.35;16.00;;;-5.60;99.90;;;;;;5057424;28;20206;-60
2022/12/13 01:33:48;;;;;;;28.85;15.40;;;-5.60;99.90;;;;;;5056478;28;20233;-59
2022/12/13 01:36:17;;;;;;;35.92;17.55;;;-5.60;99.90;;;;;;5056789;28;20222;-59
2022/12/13 01:38:44;;;;;;;28.95;17.85;;;-5.60;99.90;;;;;;5056278;28;20201;-58
2022/12/13 01:41:14;;;;;;;31.42;17.13;;;-5.60;99.90;;;;;;5056138;28;20574;-59
2022/12/13 01:43:54;;;;;;;33.00;19.10;;;-5.60;99.90;;;;;;5055848;28;20233;-59
2022/12/13 01:46:21;;;;;;;44.38;20.40;;;-5.70;99.90;;;;;;5055761;28;20201;-59
2022/12/13 01:48:54;;;;;;;30.92;16.88;;;-5.70;99.90;;;;;;5055536;28;20236;-58
2022/12/13 01:51:27;;;;;;;23.48;13.70;;;-5.70;99.90;;;;;;5055069;28;20662;-58
2022/12/13 01:53:57;;;;;;;24.70;14.52;;;-5.70;99.90;;;;;;5055249;28;20221;-60
2022/12/13 01:56:31;;;;;;;28.83;14.32;;;-5.70;99.90;;;;;;5055250;28;20211;-59
2022/12/13 01:59:00;;;;;;;34.42;16.35;;;-5.70;99.90;;;;;;5055550;28;20278;-59
2022/12/13 02:01:28;;;;;;;27.88;17.05;;;-5.70;99.90;;;;;;5055055;28;20218;-59
2022/12/13 02:03:54;;;;;;;44.58;21.00;;;-5.70;99.90;;;;;;5055378;28;20226;-59
2022/12/13 02:06:30;;;;;;;32.05;19.00;;;-5.80;99.90;;;;;;5055338;28;20202;-61
2022/12/13 02:08:57;;;;;;;27.00;15.60;;;-5.80;99.90;;;;;;5055034;28;20181;-58
2022/12/13 02:11:26;;;;;;;24.40;16.10;;;-5.70;99.90;;;;;;5055764;28;20206;-58
2022/12/13 02:13:53;;;;;;;25.13;14.65;;;-5.70;99.90;;;;;;5055078;28;20222;-59
2022/12/13 02:16:31;;;;;;;24.13;15.32;;;-5.70;99.90;;;;;;5054968;28;20222;-60
2022/12/13 02:19:38;;;;;;;24.98;15.88;;;-5.70;99.90;;;;;;5054925;28;20533;-60
2022/12/13 02:22:18;;;;;;;24.65;14.05;;;-5.70;99.90;;;;;;5054836;28;20183;-59
2022/12/13 02:24:57;;;;;;;20.58;13.93;;;-5.80;99.90;;;;;;5054475;28;20210;-60
2022/12/13 02:27:49;;;;;;;24.90;13.38;;;-5.80;99.90;;;;;;5054670;28;20276;-59
2022/12/13 02:30:29;;;;;;;21.08;13.55;;;-5.80;99.90;;;;;;5054716;28;20277;-59
2022/12/13 02:33:22;;;;;;;21.98;14.80;;;-5.80;99.90;;;;;;5054586;28;20225;-59
2022/12/13 02:35:54;;;;;;;22.08;12.75;;;-5.80;99.90;;;;;;5054696;28;20210;-59
2022/12/13 02:38:29;;;;;;;27.38;16.70;;;-5.80;99.90;;;;;;5054703;28;20190;-59
2022/12/13 02:41:04;;;;;;;26.45;15.13;;;-5.80;99.90;;;;;;5054580;28;20196;-59
2022/12/13 02:43:38;;;;;;;26.27;13.98;;;-5.80;99.90;;;;;;5054402;28;20248;-60
2022/12/13 02:46:08;;;;;;;26.98;15.13;;;-5.70;99.90;;;;;;5054100;28;20697;-59
2022/12/13 02:48:38;;;;;;;24.60;14.52;;;-5.70;99.90;;;;;;5054023;28;20207;-58
2022/12/13 02:51:07;;;;;;;26.88;15.30;;;-5.60;99.90;;;;;;5053704;28;20208;-59
2022/12/13 02:53:36;;;;;;;30.10;15.30;;;-5.60;99.90;;;;;;5054197;28;20828;-59
2022/12/13 02:56:03;;;;;;;29.15;15.77;;;-5.60;99.90;;;;;;5054315;28;20217;-59
2022/12/13 02:58:34;;;;;;;28.25;14.85;;;-5.60;99.90;;;;;;5054271;28;20213;-59
2022/12/13 03:01:16;;;;;;;22.67;13.15;;;-5.60;99.90;;;;;;5054098;28;20205;-59
2022/12/13 03:03:50;;;;;;;25.02;15.18;;;-5.60;99.90;;;;;;5054655;28;20596;-59
2022/12/13 03:06:30;;;;;;;25.80;14.05;;;-5.60;99.90;;;;;;5055513;28;20186;-59
2022/12/13 03:09:07;;;;;;;21.13;13.43;;;-5.60;99.90;;;;;;5055482;28;20269;-59
2022/12/13 03:14:34;;;;;;;25.15;12.80;;;-5.60;99.90;;;;;;5055616;28;20220;-59
2022/12/13 03:17:05;;;;;;;24.90;13.88;;;-5.70;99.90;;;;;;5055674;28;20241;-59
2022/12/13 03:19:32;;;;;;;26.98;14.18;;;-5.70;99.90;;;;;;5056405;28;20557;-59
2022/12/13 03:21:59;;;;;;;23.83;12.40;;;-5.70;99.90;;;;;;5056670;28;20229;-59
2022/12/13 03:24:26;;;;;;;29.48;14.70;;;-5.70;99.90;;;;;;5056616;28;20232;-58
2022/12/13 03:26:52;;;;;;;27.30;14.27;;;-5.70;99.90;;;;;;5056560;28;20658;-59
2022/12/13 03:29:19;;;;;;;27.13;14.80;;;-5.70;99.90;;;;;;5056388;28;20205;-59
2022/12/13 03:31:46;;;;;;;26.73;15.77;;;-5.70;99.90;;;;;;5055033;28;20203;-59
2022/12/13 03:34:14;;;;;;;25.88;15.40;;;-5.70;99.90;;;;;;5055307;28;20225;-59
2022/12/13 03:36:41;;;;;;;20.60;11.95;;;-5.70;99.90;;;;;;5054832;28;20267;-59
2022/12/13 03:39:08;;;;;;;27.58;14.25;;;-5.70;99.90;;;;;;5054874;28;20209;-58
2022/12/13 03:41:35;;;;;;;28.33;15.98;;;-5.80;99.90;;;;;;5055241;28;20570;-59
2022/12/13 03:44:05;;;;;;;25.48;14.77;;;-5.80;99.90;;;;;;5054143;28;20228;-60
2022/12/13 03:46:33;;;;;;;24.10;14.55;;;-5.80;99.90;;;;;;5054060;28;20639;-60
2022/12/13 03:49:00;;;;;;;29.48;15.82;;;-5.70;99.90;;;;;;5053898;28;20202;-58
2022/12/13 03:51:28;;;;;;;27.65;15.52;;;-5.70;99.90;;;;;;5053598;28;20237;-59
2022/12/13 03:53:55;;;;;;;27.05;15.68;;;-5.80;99.90;;;;;;5053063;28;20337;-58
2022/12/13 03:56:22;;;;;;;22.80;15.23;;;-5.80;99.90;;;;;;5053320;28;20317;-58
2022/12/13 03:58:49;;;;;;;23.23;14.90;;;-5.80;99.90;;;;;;5053540;28;20205;-58
2022/12/13 04:01:17;;;;;;;23.42;14.50;;;-5.80;99.90;;;;;;5052868;28;20206;-59
2022/12/13 04:03:45;;;;;;;25.80;16.80;;;-5.80;99.90;;;;;;5054748;28;20238;-58
2022/12/13 04:06:13;;;;;;;24.23;14.23;;;-5.80;99.90;;;;;;5054972;28;20205;-59
2022/12/13 04:10:44;;;;;;;20.42;14.23;;;-5.80;99.90;;;;;;5091065;27;20621;-60
2022/12/13 04:13:31;;;;;;;24.42;14.65;;;-5.80;99.90;;;;;;5091205;28;20238;-60
2022/12/13 04:15:58;;;;;;;32.78;17.73;;;-5.80;99.90;;;;;;5091757;28;20188;-60
2022/12/13 04:18:25;;;;;;;31.88;15.18;;;-5.80;99.90;;;;;;5091618;28;20206;-60
2022/12/13 04:20:51;;;;;;;27.77;14.57;;;-5.90;99.90;;;;;;5090817;28;20206;-59
2022/12/13 04:23:18;;;;;;;25.02;15.60;;;-5.90;99.90;;;;;;5109973;22;20235;-56
2022/12/13 04:25:46;;;;;;;28.52;14.57;;;-5.90;99.90;;;;;;5071233;28;20285;-57
2022/12/13 04:28:13;;;;;;;19.80;12.05;;;-5.80;99.90;;;;;;5070573;28;20703;-57
2022/12/13 04:30:40;;;;;;;32.55;17.35;;;-5.90;99.90;;;;;;5071051;28;20234;-57
2022/12/13 04:33:07;;;;;;;25.85;15.55;;;-5.90;99.90;;;;;;5070823;28;20707;-58
2022/12/13 04:35:33;;;;;;;34.92;15.52;;;-5.80;99.90;;;;;;5071036;28;20197;-57
2022/12/13 04:38:00;;;;;;;24.83;14.23;;;-5.80;99.90;;;;;;5071005;28;20244;-58
2022/12/13 04:40:27;;;;;;;28.67;14.85;;;-5.80;99.90;;;;;;5071233;28;20636;-56
2022/12/13 04:42:56;;;;;;;23.33;14.60;;;-5.80;99.90;;;;;;5071119;28;20206;-58
2022/12/13 04:45:23;;;;;;;23.38;14.48;;;-5.80;99.90;;;;;;5070827;28;20298;-57
2022/12/13 04:47:50;;;;;;;27.48;16.73;;;-5.80;99.90;;;;;;5070308;28;20668;-56
2022/12/13 04:50:17;;;;;;;25.20;14.38;;;-5.80;99.90;;;;;;5070296;28;20313;-57
2022/12/13 04:52:44;;;;;;;23.30;13.48;;;-5.80;99.90;;;;;;5070429;28;20212;-56
2022/12/13 04:55:10;;;;;;;28.27;15.30;;;-5.90;99.90;;;;;;5070756;28;20216;-56
2022/12/13 04:57:37;;;;;;;23.63;13.60;;;-5.90;99.90;;;;;;5070359;28;20211;-57
2022/12/13 05:00:08;;;;;;;24.98;14.95;;;-5.90;99.90;;;;;;5071447;28;20195;-57
2022/12/13 05:02:35;;;;;;;26.50;14.90;;;-5.90;99.90;;;;;;5069562;28;20207;-57
2022/12/13 05:05:02;;;;;;;24.88;15.63;;;-5.90;99.90;;;;;;5069528;28;20237;-57
2022/12/13 05:07:29;;;;;;;26.52;15.80;;;-5.90;99.90;;;;;;5070193;28;20210;-58
2022/12/13 05:09:55;;;;;;;26.17;16.50;;;-5.90;99.90;;;;;;5070141;28;20221;-56
2022/12/13 05:12:22;;;;;;;25.77;13.40;;;-5.90;99.90;;;;;;5069921;28;20692;-56
2022/12/13 05:14:49;;;;;;;23.25;13.05;;;-5.90;99.90;;;;;;5069468;28;20234;-56
2022/12/13 05:17:17;;;;;;;25.95;15.30;;;-5.90;99.90;;;;;;5069588;28;20218;-57
2022/12/13 05:19:44;;;;;;;30.63;15.13;;;-5.90;99.90;;;;;;5080800;28;20220;-57
2022/12/13 05:22:14;;;;;;;26.08;14.43;;;-5.90;99.90;;;;;;5076652;28;20548;-56
2022/12/13 05:24:41;;;;;;;21.67;13.60;;;-5.90;99.90;;;;;;5077182;28;20230;-55
2022/12/13 05:27:08;;;;;;;23.17;12.98;;;-5.90;99.90;;;;;;5077331;28;20205;-58
2022/12/13 05:29:36;;;;;;;30.52;16.08;;;-5.90;99.90;;;;;;5076791;28;20224;-57
2022/12/13 05:32:02;;;;;;;26.58;15.18;;;-5.90;99.90;;;;;;5076406;28;20618;-56
2022/12/13 05:34:31;;;;;;;34.95;16.05;;;-5.80;99.90;;;;;;5076205;28;20230;-57
2022/12/13 05:36:57;;;;;;;24.50;14.02;;;-5.90;99.90;;;;;;5075998;28;20203;-58
2022/12/13 05:39:24;;;;;;;29.40;15.70;;;-5.90;99.90;;;;;;5075911;28;20194;-58
2022/12/13 05:41:51;;;;;;;24.15;12.70;;;-5.90;99.90;;;;;;5076092;28;20564;-56
2022/12/13 05:44:18;;;;;;;31.30;15.10;;;-5.90;99.90;;;;;;5076016;28;20226;-56
2022/12/13 05:46:45;;;;;;;24.80;15.48;;;-5.90;99.90;;;;;;5076388;28;20204;-57
2022/12/13 05:49:11;;;;;;;23.40;13.38;;;-5.90;99.90;;;;;;5073960;28;20605;-57
2022/12/13 05:51:40;;;;;;;26.75;15.07;;;-6.00;99.90;;;;;;5056749;28;20212;-57
2022/12/13 05:54:06;;;;;;;27.92;14.32;;;-6.00;99.90;;;;;;5058459;28;20232;-58
2022/12/13 05:56:33;;;;;;;27.30;14.05;;;-6.00;99.90;;;;;;5056069;28;20657;-57
2022/12/13 05:59:00;;;;;;;27.98;14.02;;;-6.00;99.90;;;;;;5051872;28;20202;-57
2022/12/13 06:01:27;;;;;;;23.15;13.98;;;-6.00;99.90;;;;;;5035550;28;20220;-57
2022/12/13 06:03:53;;;;;;;26.45;13.35;;;-6.00;99.90;;;;;;5048778;28;20221;-58
2022/12/13 06:06:20;;;;;;;25.05;13.45;;;-6.00;99.90;;;;;;5055470;28;20210;-57
2022/12/13 06:08:48;;;;;;;30.48;14.95;;;-6.00;99.90;;;;;;5056090;28;20688;-59
2022/12/13 06:11:15;;;;;;;21.83;13.40;;;-6.00;99.90;;;;;;5055577;28;20565;-58
2022/12/13 06:13:43;;;;;;;25.25;13.82;;;-6.10;99.90;;;;;;5055601;28;20241;-57
2022/12/13 06:16:12;;;;;;;28.20;13.20;;;-6.10;99.90;;;;;;5054994;28;20206;-57
2022/12/13 06:18:38;;;;;;;20.67;12.65;;;-6.10;99.90;;;;;;5055569;28;20208;-57
2022/12/13 06:21:07;;;;;;;23.33;12.70;;;-6.10;99.90;;;;;;5056141;28;20213;-57
2022/12/13 06:23:35;;;;;;;21.52;14.38;;;-6.10;99.90;;;;;;5055498;28;20235;-57
2022/12/13 06:26:04;;;;;;;22.35;13.30;;;-6.10;99.90;;;;;;5055108;28;20205;-57
2022/12/13 06:28:31;;;;;;;28.85;14.18;;;-6.10;99.90;;;;;;5055478;28;20206;-57
2022/12/13 06:31:00;;;;;;;28.63;16.15;;;-6.10;99.90;;;;;;5055823;28;20229;-57
2022/12/13 06:33:27;;;;;;;25.30;14.70;;;-6.10;99.90;;;;;;5053821;28;20670;-57
2022/12/13 06:35:57;;;;;;;28.25;16.17;;;-6.10;99.90;;;;;;5054733;28;20227;-57
2022/12/13 06:38:24;;;;;;;27.83;14.45;;;-6.10;99.90;;;;;;5054483;28;20204;-57
2022/12/13 06:40:51;;;;;;;25.85;14.52;;;-6.10;99.90;;;;;;5054611;28;20249;-57
2022/12/13 06:43:20;;;;;;;28.95;14.80;;;-6.10;99.90;;;;;;5054757;28;20224;-59
2022/12/13 06:45:47;;;;;;;26.05;15.20;;;-6.10;99.90;;;;;;5054553;28;20201;-58
2022/12/13 06:48:14;;;;;;;24.83;15.90;;;-6.10;99.90;;;;;;5055518;28;20204;-58
2022/12/13 06:50:40;;;;;;;30.15;16.50;;;-6.10;99.90;;;;;;5054857;28;20229;-57
2022/12/13 06:53:07;;;;;;;24.90;15.98;;;-6.10;99.90;;;;;;5054814;28;20214;-58
2022/12/13 06:55:35;;;;;;;26.95;15.73;;;-6.10;99.90;;;;;;5055195;28;20213;-58
2022/12/13 06:58:02;;;;;;;26.35;14.02;;;-6.10;99.90;;;;;;5054832;28;20204;-58
2022/12/13 07:00:30;;;;;;;29.70;15.15;;;-6.10;99.90;;;;;;5054725;28;20198;-59
2022/12/13 07:02:57;;;;;;;30.90;13.85;;;-6.00;99.90;;;;;;5053432;28;20229;-58
2022/12/13 07:05:26;;;;;;;23.98;14.02;;;-6.00;99.90;;;;;;5053515;28;20206;-57
2022/12/13 07:07:53;;;;;;;32.30;15.40;;;-6.00;99.90;;;;;;5054106;28;20209;-59
2022/12/13 07:10:20;;;;;;;29.48;14.75;;;-6.00;99.90;;;;;;5053674;28;20220;-57
2022/12/13 07:12:47;;;;;;;26.95;14.20;;;-6.00;99.90;;;;;;5053704;28;20733;-59
2022/12/13 07:15:14;;;;;;;33.50;17.25;;;-6.00;99.90;;;;;;5054162;28;20262;-59
2022/12/13 07:17:42;;;;;;;32.00;15.82;;;-6.00;99.90;;;;;;5053733;28;20684;-58
2022/12/13 07:20:12;;;;;;;24.13;14.05;;;-6.00;99.90;;;;;;5054257;28;20608;-58
2022/12/13 07:22:39;;;;;;;25.83;15.00;;;-5.90;99.90;;;;;;5053606;28;20292;-57
2022/12/13 07:25:06;;;;;;;28.00;15.73;;;-5.90;99.90;;;;;;5053551;28;20227;-56
2022/12/13 07:27:33;;;;;;;33.60;15.27;;;-5.90;99.90;;;;;;5054034;28;20205;-58
2022/12/13 07:30:00;;;;;;;28.73;14.15;;;-5.90;99.90;;;;;;5053968;28;20543;-58
2022/12/13 07:32:28;;;;;;;28.15;14.90;;;-5.80;99.90;;;;;;5053868;28;20698;-59
2022/12/13 07:34:56;;;;;;;35.13;16.60;;;-5.80;99.90;;;;;;5053683;28;20225;-57
2022/12/13 07:37:23;;;;;;;29.45;15.73;;;-5.80;99.90;;;;;;5054468;28;20209;-58
2022/12/13 07:39:49;;;;;;;26.10;14.40;;;-5.80;99.90;;;;;;5054589;28;20670;-59
2022/12/13 07:42:16;;;;;;;26.10;15.55;;;-5.80;99.90;;;;;;5054049;28;20206;-58
2022/12/13 07:44:43;;;;;;;25.02;14.45;;;-5.80;99.90;;;;;;5053884;28;20229;-58
2022/12/13 07:47:09;;;;;;;30.65;14.43;;;-5.80;99.90;;;;;;5054753;28;20229;-57
2022/12/13 07:49:37;;;;;;;27.35;15.15;;;-5.80;99.90;;;;;;5054111;28;20213;-58
2022/12/13 07:52:05;;;;;;;28.92;14.60;;;-5.80;99.90;;;;;;5054097;28;20680;-58
2022/12/13 07:54:32;;;;;;;24.15;12.75;;;-5.80;99.90;;;;;;5054054;28;20235;-56
2022/12/13 07:56:59;;;;;;;29.90;14.75;;;-5.80;99.90;;;;;;5054172;28;20214;-57
2022/12/13 07:59:26;;;;;;;32.00;16.38;;;-5.70;99.90;;;;;;5053962;28;20577;-58
2022/12/13 08:01:53;;;;;;;23.08;13.15;;;-5.70;99.90;;;;;;5054506;28;20215;-58
2022/12/13 08:04:20;;;;;;;21.30;13.35;;;-5.70;99.90;;;;;;5054990;28;20231;-57
2022/12/13 08:06:46;;;;;;;26.83;14.32;;;-5.60;99.90;;;;;;5054339;28;20205;-59
2022/12/13 08:09:14;;;;;;;24.73;12.95;;;-5.60;99.90;;;;;;5054022;28;20708;-57
2022/12/13 08:11:41;;;;;;;30.25;16.10;;;-5.60;99.90;;;;;;5054023;28;20669;-56
2022/12/13 08:14:08;;;;;;;21.60;12.85;;;-5.60;99.90;;;;;;5054194;28;20224;-59
2022/12/13 08:16:35;;;;;;;29.88;14.77;;;-5.50;99.90;;;;;;5054639;28;20206;-57
2022/12/13 08:19:02;;;;;;;30.00;15.65;;;-5.50;99.90;;;;;;5054333;28;20205;-58
2022/12/13 08:21:29;;;;;;;28.83;12.85;;;-5.50;99.90;;;;;;5054419;28;20236;-57
2022/12/13 08:23:56;;;;;;;26.42;14.95;;;-5.40;99.90;;;;;;5053657;28;20238;-57
2022/12/13 08:26:24;;;;;;;32.60;16.70;;;-5.40;99.90;;;;;;5053804;28;20209;-58
2022/12/13 08:28:51;;;;;;;35.78;14.43;;;-5.30;99.90;;;;;;5054066;28;20208;-58
2022/12/13 08:31:18;;;;;;;27.85;13.70;;;-5.30;99.90;;;;;;5053949;28;20223;-57
2022/12/13 08:33:46;;;;;;;26.45;16.35;;;-5.20;99.90;;;;;;5053367;28;20232;-58
2022/12/13 08:36:16;;;;;;;28.50;13.45;;;-5.20;99.90;;;;;;5053603;28;20201;-58
2022/12/13 08:38:43;;;;;;;31.23;15.63;;;-5.10;99.90;;;;;;5055264;28;20280;-58
2022/12/13 08:41:11;;;;;;;29.63;16.65;;;-5.00;99.90;;;;;;5055183;28;20291;-58
2022/12/13 08:43:40;;;;;;;29.63;16.35;;;-4.90;99.90;;;;;;5055348;28;20251;-58
2022/12/13 08:46:07;;;;;;;28.52;14.80;;;-4.90;99.90;;;;;;5055425;28;20200;-58
2022/12/13 08:48:34;;;;;;;25.02;12.68;;;-4.80;99.90;;;;;;5055887;28;20208;-58
2022/12/13 08:51:03;;;;;;;31.77;15.52;;;-4.80;99.90;;;;;;5054656;28;20229;-56
2022/12/13 08:53:30;;;;;;;30.13;17.75;;;-4.80;99.90;;;;;;5055040;28;20229;-57
2022/12/13 08:56:01;;;;;;;22.15;13.38;;;-4.70;99.90;;;;;;5057362;28;20287;-57
2022/12/13 08:58:28;;;;;;;34.08;13.75;;;-4.60;99.90;;;;;;5059670;28;20200;-58
2022/12/13 09:00:57;;;;;;;27.90;14.20;;;-4.60;99.90;;;;;;5057737;28;20197;-58
2022/12/13 09:03:24;;;;;;;34.03;16.25;;;-4.60;99.90;;;;;;5058556;28;20228;-58
2022/12/13 09:05:51;;;;;;;31.02;14.13;;;-4.50;99.90;;;;;;5059339;28;20205;-58
2022/12/13 09:08:18;;;;;;;32.45;15.52;;;-4.50;99.90;;;;;;5058478;28;20288;-58
2022/12/13 09:10:45;;;;;;;30.23;14.32;;;-4.50;99.90;;;;;;5058323;28;20232;-55
2022/12/13 09:13:12;;;;;;;26.83;15.15;;;-4.50;99.90;;;;;;5058673;28;20284;-57
2022/12/13 09:15:39;;;;;;;26.40;15.60;;;-4.50;99.90;;;;;;5059135;28;20207;-57
2022/12/13 09:18:08;;;;;;;33.38;16.67;;;-4.40;99.90;;;;;;5059472;28;20298;-58
2022/12/13 09:20:36;;;;;;;27.33;14.45;;;-4.30;99.90;;;;;;5059416;28;20668;-58
2022/12/13 09:23:04;;;;;;;23.08;13.98;;;-4.30;99.90;;;;;;5058653;28;20244;-58
2022/12/13 09:25:32;;;;;;;29.33;15.32;;;-4.30;99.90;;;;;;5060449;28;20233;-58
2022/12/13 09:28:00;;;;;;;27.30;14.75;;;-4.20;99.90;;;;;;5059270;28;20286;-59
2022/12/13 09:30:27;;;;;;;29.90;13.73;;;-4.20;99.90;;;;;;5058735;28;20231;-57
2022/12/13 09:32:55;;;;;;;30.52;15.05;;;-4.10;99.90;;;;;;5058356;28;20209;-57
2022/12/13 09:35:23;;;;;;;23.42;14.00;;;-4.10;99.90;;;;;;5058876;28;20202;-57
2022/12/13 09:37:51;;;;;;;24.92;14.02;;;-4.00;99.90;;;;;;5058431;28;20658;-58
2022/12/13 09:40:22;;;;;;;30.40;14.73;;;-3.90;99.90;;;;;;5058660;28;20205;-58
2022/12/13 09:42:51;;;;;;;20.45;14.00;;;-3.90;99.90;;;;;;5058734;28;20225;-58
2022/12/13 09:45:18;;;;;;;22.70;14.13;;;-3.80;99.90;;;;;;5060505;28;20204;-58
2022/12/13 09:47:48;;;;;;;30.85;15.82;;;-3.70;99.90;;;;;;5058594;28;20784;-58
2022/12/13 09:50:22;;;;;;;26.98;12.45;;;-3.60;99.90;;;;;;5057611;28;20280;-58
2022/12/13 09:52:50;;;;;;;25.30;13.77;;;-3.50;99.90;;;;;;5057373;28;20228;-58
2022/12/13 09:55:22;;;;;;;32.05;14.85;;;-3.40;99.90;;;;;;5056656;28;20749;-59
2022/12/13 09:57:50;;;;;;;30.55;15.35;;;-3.40;99.90;;;;;;5057243;28;20284;-58
2022/12/13 10:00:19;;;;;;;26.95;14.32;;;-3.40;99.90;;;;;;5057193;28;20202;-58
2022/12/13 10:02:47;;;;;;;22.25;13.40;;;-3.40;99.90;;;;;;5056748;28;20198;-57
2022/12/13 10:05:26;;;;;;;29.33;14.35;;;-3.30;99.90;;;;;;5056404;28;20555;-58
2022/12/13 10:07:57;;;;;;;26.27;13.20;;;-3.30;99.90;;;;;;5055659;28;20254;-58
2022/12/13 10:10:24;;;;;;;27.88;14.23;;;-3.30;99.90;;;;;;5055627;28;20225;-59
2022/12/13 10:12:56;;;;;;;25.83;15.45;;;-3.30;99.90;;;;;;5056582;28;20202;-58
2022/12/13 10:15:24;;;;;;;23.58;14.00;;;-3.20;99.90;;;;;;5055961;28;20190;-60
2022/12/13 10:17:51;;;;;;;28.63;14.68;;;-3.10;99.90;;;;;;5056409;28;20217;-59
2022/12/13 10:20:22;;;;;;;21.98;12.88;;;-3.00;99.90;;;;;;5055409;28;20579;-58
2022/12/13 10:22:49;;;;;;;23.08;13.68;;;-3.00;99.90;;;;;;5055647;28;20232;-56
2022/12/13 10:25:37;;;;;;;25.25;13.55;;;-2.90;99.90;;;;;;5093948;23;20231;-62
2022/12/13 10:28:06;;;;;;;23.15;13.77;;;-2.80;99.90;;;;;;5074446;28;20695;-61
2022/12/13 10:30:41;;;;;;;20.75;13.18;;;-2.80;99.90;;;;;;5074769;28;20696;-63
2022/12/13 10:33:20;;;;;;;28.48;14.05;;;-2.70;99.90;;;;;;5074240;28;20188;-63
2022/12/13 10:36:06;;;;;;;21.95;13.02;;;-2.60;99.90;;;;;;5054211;28;20533;-63
2022/12/13 10:38:37;;;;;;;27.48;14.73;;;-2.50;99.90;;;;;;5054131;28;20623;-63
2022/12/13 10:41:26;;;;;;;26.33;13.95;;;-2.50;99.90;;;;;;5054240;28;20182;-61
2022/12/13 10:44:09;;;;;;;24.90;14.93;;;-2.40;99.90;;;;;;5053975;28;20221;-63
2022/12/13 10:46:36;;;;;;;25.88;13.35;;;-2.40;99.90;;;;;;5055347;28;20515;-62
2022/12/13 10:49:03;;;;;;;23.92;13.93;;;-2.40;99.90;;;;;;5054407;28;20342;-63
2022/12/13 10:51:38;;;;;;;27.92;15.48;;;-2.40;99.90;;;;;;5054856;28;20228;-64
2022/12/13 10:54:05;;;;;;;20.50;12.93;;;-2.50;99.90;;;;;;5054394;28;20551;-63
2022/12/13 10:56:37;;;;;;;22.77;14.10;;;-2.50;99.90;;;;;;5053834;28;20205;-62
2022/12/13 10:59:22;;;;;;;33.17;15.70;;;-2.40;99.90;;;;;;5054512;28;20186;-63
2022/12/13 11:01:49;;;;;;;29.23;15.23;;;-2.30;99.90;;;;;;5053957;28;20186;-63
2022/12/13 11:04:23;;;;;;;24.67;15.50;;;-2.20;99.90;;;;;;5053982;28;20233;-64
2022/12/13 11:06:49;;;;;;;20.52;13.30;;;-2.10;99.90;;;;;;5053667;28;20189;-63
2022/12/13 11:09:23;;;;;;;28.05;15.95;;;-2.10;99.90;;;;;;5054777;28;20209;-62
2022/12/13 11:11:53;;;;;;;26.60;13.95;;;-2.00;99.90;;;;;;5053482;28;20210;-63
2022/12/13 11:14:24;;;;;;;30.85;15.85;;;-2.00;99.90;;;;;;5053184;28;20303;-63
2022/12/13 11:16:55;;;;;;;28.48;14.85;;;-1.90;99.90;;;;;;5055362;28;20642;-63
2022/12/13 11:19:27;;;;;;;26.73;14.70;;;-1.90;99.90;;;;;;5054076;28;20197;-63
2022/12/13 11:21:54;;;;;;;26.88;15.93;;;-1.80;99.90;;;;;;5053408;28;20677;-62
2022/12/13 11:24:24;;;;;;;31.65;19.50;;;-1.80;99.90;;;;;;5053939;28;20240;-64
2022/12/13 11:26:57;;;;;;;29.63;16.45;;;-1.70;99.90;;;;;;5054036;28;20209;-62
2022/12/13 11:29:58;;;;;;;30.55;16.00;;;-1.60;99.90;;;;;;5053499;28;20209;-63
2022/12/13 11:32:41;;;;;;;26.42;14.73;;;-1.50;99.90;;;;;;5023167;28;20229;-64
2022/12/13 11:35:15;;;;;;;27.35;15.15;;;-1.40;99.90;;;;;;5055640;28;20221;-64
2022/12/13 11:37:50;;;;;;;32.50;16.23;;;-1.40;99.90;;;;;;5054933;28;20306;-62
2022/12/13 11:40:23;;;;;;;24.35;14.95;;;-1.30;99.90;;;;;;5054788;28;20186;-63
2022/12/13 11:42:57;;;;;;;24.52;15.88;;;-1.30;99.90;;;;;;5055061;28;20284;-62
2022/12/13 11:45:28;;;;;;;29.92;16.05;;;-1.30;99.90;;;;;;5055014;28;20257;-64
2022/12/13 11:48:02;;;;;;;27.73;17.58;;;-1.20;99.90;;;;;;5056618;28;20195;-64
2022/12/13 11:50:34;;;;;;;29.48;16.15;;;-1.20;99.90;;;;;;5057444;28;20700;-64
2022/12/13 11:53:19;;;;;;;34.22;17.17;;;-1.10;99.90;;;;;;5059216;28;20272;-63
2022/12/13 11:55:51;;;;;;;26.77;16.35;;;-1.10;99.90;;;;;;5059268;28;20186;-64
2022/12/13 11:58:25;;;;;;;32.13;17.52;;;-1.10;99.90;;;;;;5057101;28;20192;-63
2022/12/13 12:00:59;;;;;;;25.08;15.70;;;-1.10;99.90;;;;;;5059855;28;20630;-63
2022/12/13 12:03:35;;;;;;;28.80;15.73;;;-1.10;99.90;;;;;;5058943;28;20190;-64
2022/12/13 12:06:09;;;;;;;27.50;16.30;;;-1.10;99.90;;;;;;5058394;28;20182;-65
2022/12/13 12:08:40;;;;;;;29.38;15.90;;;-1.20;99.90;;;;;;5060524;28;20186;-64
2022/12/13 12:11:13;;;;;;;29.90;15.80;;;-1.20;99.90;;;;;;5058263;28;20210;-64
2022/12/13 12:13:45;;;;;;;24.25;14.38;;;-1.20;99.90;;;;;;5054781;28;20222;-63
2022/12/13 12:16:20;;;;;;;29.27;15.27;;;-1.10;99.90;;;;;;5055689;28;20197;-64
2022/12/13 12:18:47;;;;;;;32.22;16.38;;;-1.10;99.90;;;;;;5055102;28;20192;-62
2022/12/13 12:21:28;;;;;;;30.27;16.90;;;-1.00;99.90;;;;;;5055462;28;20546;-63
2022/12/13 12:24:07;;;;;;;24.55;15.02;;;-1.00;99.90;;;;;;5054454;28;20241;-64
2022/12/13 12:26:40;;;;;;;32.53;16.02;;;-0.90;99.90;;;;;;5055271;28;20190;-62
2022/12/13 12:29:34;;;;;;;30.60;16.80;;;-0.90;99.90;;;;;;5054657;28;20197;-64
2022/12/13 12:32:07;;;;;;;33.75;17.25;;;-0.90;99.90;;;;;;5055279;28;20221;-63
2022/12/13 12:34:44;;;;;;;28.33;16.02;;;-0.90;99.90;;;;;;5058162;28;20226;-62
2022/12/13 12:37:18;;;;;;;27.10;15.85;;;-0.80;99.90;;;;;;5057815;28;20216;-64
2022/12/13 12:39:54;;;;;;;29.92;16.02;;;-0.80;99.90;;;;;;5058337;28;20230;-63
2022/12/13 12:42:39;;;;;;;31.65;18.25;;;-0.80;99.90;;;;;;5057629;28;20665;-63
2022/12/13 12:45:23;;;;;;;31.58;17.88;;;-0.80;99.90;;;;;;5058416;28;20237;-63